createdAt,value
2023-02-19T00:15:01.285Z,88827.00
2023-02-19T00:16:01.270Z,88825.00
2023-02-19T00:20:00.988Z,88819.00
2023-02-19T00:23:00.813Z,88827.00
2023-02-19T00:24:00.722Z,88821.00
2023-02-19T00:25:00.658Z,88817.00
2023-02-19T00:26:12.341Z,88819.00
2023-02-19T00:27:01.562Z,88819.00
2023-02-19T00:28:00.481Z,88819.00
2023-02-19T00:29:00.429Z,88819.00
2023-02-19T00:30:00.432Z,88819.00
2023-02-19T00:31:00.310Z,88821.00
2023-02-19T00:32:00.312Z,88821.00
2023-02-19T00:33:00.216Z,88825.00
2023-02-19T00:34:00.108Z,88825.00
2023-02-19T00:35:00.051Z,88823.00
2023-02-19T00:35:59.996Z,88821.00
2023-02-19T00:36:59.957Z,88817.00
2023-02-19T00:37:59.879Z,88819.00
2023-02-19T00:38:59.787Z,88821.00
2023-02-19T00:39:59.711Z,88823.00
2023-02-19T00:40:59.673Z,88825.00
2023-02-19T00:41:59.599Z,88823.00
2023-02-19T00:42:59.545Z,88823.00
2023-02-19T00:43:59.474Z,88819.00
2023-02-19T00:44:59.410Z,88817.00
2023-02-19T00:45:59.356Z,88817.00
2023-02-19T00:46:59.329Z,88821.00
2023-02-19T00:47:59.203Z,88823.00
2023-02-19T00:48:59.152Z,88821.00
2023-02-19T00:49:59.072Z,88825.00
2023-02-19T00:50:59.006Z,88821.00
2023-02-19T00:51:58.943Z,88823.00
2023-02-19T00:52:58.873Z,88819.00
2023-02-19T00:53:58.818Z,88821.00
2023-02-19T00:54:58.767Z,88823.00
2023-02-19T00:55:58.660Z,88821.00
2023-02-19T00:56:58.639Z,88819.00
2023-02-19T00:57:58.561Z,88819.00
2023-02-19T00:58:58.476Z,88815.00
2023-02-19T00:59:58.607Z,88813.00
2023-02-19T01:00:58.338Z,88813.00
2023-02-19T01:01:58.322Z,88813.00
2023-02-19T01:02:58.243Z,88813.00
2023-02-19T01:03:58.159Z,88809.00
2023-02-19T01:04:58.177Z,88809.00
2023-02-19T01:05:58.028Z,88809.00
2023-02-19T01:06:57.971Z,88807.00
2023-02-19T01:07:57.919Z,88807.00
2023-02-19T01:08:57.848Z,88809.00
2023-02-19T01:09:57.763Z,88809.00
2023-02-19T01:10:57.734Z,88809.00
2023-02-19T01:11:57.683Z,88807.00
2023-02-19T01:12:57.602Z,88805.00
2023-02-19T01:13:57.552Z,88807.00
2023-02-19T01:14:57.512Z,88803.00
2023-02-19T01:15:57.451Z,88805.00
2023-02-19T01:16:57.363Z,88807.00
2023-02-19T01:17:57.311Z,88807.00
2023-02-19T01:18:57.232Z,88803.00
2023-02-19T01:19:57.164Z,88799.00
2023-02-19T01:20:57.124Z,88803.00
2023-02-19T01:21:57.041Z,88805.00
2023-02-19T01:22:56.989Z,88807.00
2023-02-19T01:23:56.918Z,88801.00
2023-02-19T01:24:56.851Z,88799.00
2023-02-19T01:25:56.812Z,88795.00
2023-02-19T01:26:56.747Z,88791.00
2023-02-19T01:27:56.680Z,88789.00
2023-02-19T01:28:56.618Z,88787.00
2023-02-19T01:29:56.539Z,88785.00
2023-02-19T01:30:56.536Z,88782.00
2023-02-19T01:31:56.508Z,88787.00
2023-02-19T01:32:56.383Z,88782.00
2023-02-19T01:33:56.344Z,88782.00
2023-02-19T01:34:56.242Z,88785.00
2023-02-19T01:35:56.193Z,88787.00
2023-02-19T01:36:56.109Z,88785.00
2023-02-19T01:37:56.072Z,88782.00
2023-02-19T01:38:55.999Z,88782.00
2023-02-19T01:39:55.928Z,88783.00
2023-02-19T01:40:55.863Z,88782.00
2023-02-19T01:41:55.823Z,88783.00
2023-02-19T01:42:55.776Z,88782.00
2023-02-19T01:43:55.678Z,88776.00
2023-02-19T01:44:55.609Z,88780.00
2023-02-19T01:45:55.553Z,88778.00
2023-02-19T01:46:55.511Z,88778.00
2023-02-19T01:47:55.452Z,88780.00
2023-02-19T01:48:55.378Z,88778.00
2023-02-19T01:49:55.310Z,88774.00
2023-02-19T01:50:55.251Z,88772.00
2023-02-19T01:51:55.154Z,88774.00
2023-02-19T01:52:55.156Z,88776.00
2023-02-19T01:53:55.035Z,88774.00
2023-02-19T01:54:54.981Z,88774.00
2023-02-19T01:55:54.922Z,88770.00
2023-02-19T01:56:54.860Z,88768.00
2023-02-19T01:57:54.804Z,88770.00
2023-02-19T01:58:54.748Z,88766.00
2023-02-19T01:59:54.682Z,88766.00
2023-02-19T02:00:54.651Z,88762.00
2023-02-19T02:01:54.614Z,88762.00
2023-02-19T02:02:54.488Z,88762.00
2023-02-19T02:03:54.439Z,88758.00
2023-02-19T02:04:54.373Z,88760.00
2023-02-19T02:05:54.310Z,88760.00
2023-02-19T02:06:54.252Z,88758.00
2023-02-19T02:07:54.164Z,88756.00
2023-02-19T02:08:54.121Z,88758.00
2023-02-19T02:09:54.052Z,88762.00
2023-02-19T02:10:53.973Z,88762.00
2023-02-19T02:11:53.936Z,88760.00
2023-02-19T02:12:53.852Z,88756.00
2023-02-19T02:13:53.817Z,88754.00
2023-02-19T02:14:53.776Z,88758.00
2023-02-19T02:15:53.705Z,88760.00
2023-02-19T02:16:53.610Z,88762.00
2023-02-19T02:17:53.561Z,88760.00
2023-02-19T02:18:53.504Z,88754.00
2023-02-19T02:19:53.455Z,88756.00
2023-02-19T02:20:53.437Z,88760.00
2023-02-19T02:21:53.347Z,88760.00
2023-02-19T02:22:53.254Z,88760.00
2023-02-19T02:23:53.242Z,88758.00
2023-02-19T02:24:53.141Z,88758.00
2023-02-19T02:25:53.070Z,88752.00
2023-02-19T02:26:53.044Z,88750.00
2023-02-19T02:27:52.947Z,88748.00
2023-02-19T02:28:52.921Z,88746.00
2023-02-19T02:29:52.839Z,88746.00
2023-02-19T02:30:52.800Z,88746.00
2023-02-19T02:31:52.802Z,88744.00
2023-02-19T02:32:52.679Z,88733.00
2023-02-19T02:33:52.677Z,88733.00
2023-02-19T02:34:52.545Z,88733.00
2023-02-19T02:35:52.482Z,88737.00
2023-02-19T02:36:52.431Z,88735.00
2023-02-19T02:37:52.365Z,88735.00
2023-02-19T02:38:52.297Z,88731.00
2023-02-19T02:39:52.240Z,88725.00
2023-02-19T02:40:52.161Z,88721.00
2023-02-19T02:41:52.126Z,88715.00
2023-02-19T02:42:52.040Z,88717.00
2023-02-19T02:43:51.978Z,88717.00
2023-02-19T02:44:51.947Z,88717.00
2023-02-19T02:45:51.910Z,88719.00
2023-02-19T02:46:51.779Z,88717.00
2023-02-19T02:47:51.744Z,88719.00
2023-02-19T02:48:51.657Z,88717.00
2023-02-19T02:49:51.646Z,88715.00
2023-02-19T02:50:51.555Z,88714.00
2023-02-19T02:51:51.509Z,88712.00
2023-02-19T02:52:51.496Z,88710.00
2023-02-19T02:53:51.394Z,88710.00
2023-02-19T02:54:51.349Z,88710.00
2023-02-19T02:55:51.281Z,88710.00
2023-02-19T02:56:51.246Z,88710.00
2023-02-19T04:32:45.325Z,88653.00
2023-02-19T04:33:45.270Z,88651.00
2023-02-19T04:34:45.200Z,88649.00
2023-02-19T04:35:45.137Z,88645.00
2023-02-19T04:36:45.096Z,88641.00
2023-02-19T04:37:45.058Z,88641.00
2023-02-19T04:38:44.973Z,88645.00
2023-02-19T04:39:44.885Z,88643.00
2023-02-19T04:40:44.833Z,88635.00
2023-02-19T04:41:44.811Z,88635.00
2023-02-19T04:42:44.731Z,88631.00
2023-02-19T04:43:44.651Z,88631.00
2023-02-19T04:44:44.621Z,88633.00
2023-02-19T04:45:44.543Z,88637.00
2023-02-19T04:46:44.514Z,88639.00
2023-02-19T04:47:44.424Z,88635.00
2023-02-19T04:48:44.451Z,88631.00
2023-02-19T04:49:44.322Z,88625.00
2023-02-19T04:50:44.264Z,88621.00
2023-02-19T04:51:44.188Z,88619.00
2023-02-19T04:52:44.117Z,88619.00
2023-02-19T04:53:44.083Z,88619.00
2023-02-19T04:54:44.007Z,88619.00
2023-02-19T04:55:43.962Z,88621.00
2023-02-19T04:56:43.896Z,88619.00
2023-02-19T04:57:43.853Z,88615.00
2023-02-19T04:58:43.779Z,88613.00
2023-02-19T04:59:43.779Z,88612.00
2023-02-19T05:00:43.653Z,88610.00
2023-02-19T05:01:43.619Z,88608.00
2023-02-19T05:02:43.548Z,88604.00
2023-02-19T05:03:43.484Z,88602.00
2023-02-19T05:04:43.462Z,88608.00
2023-02-19T05:05:43.351Z,88608.00
2023-02-19T05:06:43.351Z,88610.00
2023-02-19T05:07:43.232Z,88606.00
2023-02-19T05:08:43.150Z,88602.00
2023-02-19T05:09:43.094Z,88600.00
2023-02-19T05:10:43.024Z,88598.00
2023-02-19T05:11:42.984Z,88590.00
2023-02-19T05:12:42.952Z,88588.00
2023-02-19T05:13:42.836Z,88578.00
2023-02-19T05:14:42.778Z,88574.00
2023-02-19T05:15:42.762Z,88570.00
2023-02-19T05:16:42.647Z,88572.00
2023-02-19T05:17:42.629Z,88572.00
2023-02-19T05:18:42.544Z,88570.00
2023-02-19T05:19:42.459Z,88568.00
2023-02-19T05:20:42.413Z,88562.00
2023-02-19T05:21:42.354Z,88562.00
2023-02-19T05:22:42.309Z,88562.00
2023-02-19T05:23:42.221Z,88564.00
2023-02-19T05:24:42.184Z,88572.00
2023-02-19T05:25:42.112Z,88576.00
2023-02-19T05:26:44.557Z,88576.00
2023-02-19T05:27:41.999Z,88566.00
2023-02-19T05:28:41.931Z,88560.00
2023-02-19T05:29:41.875Z,88562.00
2023-02-19T05:30:41.811Z,88562.00
2023-02-19T05:31:41.895Z,88568.00
2023-02-19T05:32:41.731Z,88574.00
2023-02-19T05:33:41.627Z,88578.00
2023-02-19T05:34:41.570Z,88580.00
2023-02-19T05:35:41.516Z,88584.00
2023-02-19T05:36:41.453Z,88586.00
2023-02-19T05:37:41.430Z,88586.00
2023-02-19T05:38:41.337Z,88590.00
2023-02-19T05:39:41.277Z,88592.00
2023-02-19T05:40:41.208Z,88588.00
2023-02-19T05:41:41.177Z,88584.00
2023-02-19T05:42:41.109Z,88582.00
2023-02-19T05:43:41.076Z,88588.00
2023-02-19T05:44:40.985Z,88586.00
2023-02-19T05:45:40.921Z,88590.00
2023-02-19T05:46:40.918Z,88586.00
2023-02-19T05:47:40.822Z,88582.00
2023-02-19T05:48:40.744Z,88582.00
2023-02-19T05:49:40.691Z,88584.00
2023-02-19T05:50:40.619Z,88592.00
2023-02-19T05:51:40.545Z,88598.00
2023-02-19T05:52:40.623Z,88606.00
2023-02-19T05:53:40.463Z,88608.00
2023-02-19T05:54:40.367Z,88610.00
2023-02-19T05:55:40.314Z,88613.00
2023-02-19T05:56:40.301Z,88619.00
2023-02-19T05:57:42.509Z,88625.00
2023-02-19T05:58:40.166Z,88629.00
2023-02-19T05:59:40.080Z,88637.00
2023-02-19T06:00:39.997Z,88641.00
2023-02-19T06:01:39.946Z,88649.00
2023-02-19T06:02:39.924Z,88649.00
2023-02-19T06:03:39.902Z,88653.00
2023-02-19T06:04:39.758Z,88657.00
2023-02-19T06:05:39.728Z,88662.00
2023-02-19T06:06:39.650Z,88662.00
2023-02-19T06:07:39.638Z,88660.00
2023-02-19T06:08:39.535Z,88659.00
2023-02-19T06:09:39.452Z,88660.00
2023-02-19T06:10:39.419Z,88662.00
2023-02-19T06:11:39.393Z,88659.00
2023-02-19T06:12:39.362Z,88657.00
2023-02-19T06:13:39.234Z,88655.00
2023-02-19T06:14:39.184Z,88653.00
2023-02-19T06:15:39.098Z,88657.00
2023-02-19T06:16:39.043Z,88657.00
2023-02-19T06:17:38.993Z,88660.00
2023-02-19T06:18:38.950Z,88659.00
2023-02-19T06:19:38.876Z,88660.00
2023-02-19T06:20:38.812Z,88660.00
2023-02-19T06:21:38.766Z,88668.00
2023-02-19T06:22:38.708Z,88670.00
2023-02-19T06:23:38.652Z,88674.00
2023-02-19T06:24:38.583Z,88680.00
2023-02-19T06:25:38.527Z,88684.00
2023-02-19T06:26:38.438Z,88684.00
2023-02-19T06:27:38.383Z,88686.00
2023-02-19T06:28:38.334Z,88680.00
2023-02-19T06:29:38.262Z,88672.00
2023-02-19T06:30:38.208Z,88668.00
2023-02-19T06:31:38.198Z,88662.00
2023-02-19T06:32:38.076Z,88659.00
2023-02-19T06:33:38.035Z,88659.00
2023-02-19T06:34:37.931Z,88666.00
2023-02-19T06:35:37.896Z,88668.00
2023-02-19T06:36:37.868Z,88664.00
2023-02-19T06:37:37.793Z,88668.00
2023-02-19T06:38:37.748Z,88672.00
2023-02-19T06:39:37.695Z,88666.00
2023-02-19T06:40:37.668Z,88659.00
2023-02-19T06:41:37.580Z,88657.00
2023-02-19T06:42:37.572Z,88666.00
2023-02-19T06:43:37.548Z,88672.00
2023-02-19T06:44:37.508Z,88670.00
2023-02-19T06:45:37.415Z,88666.00
2023-02-19T06:46:37.559Z,88666.00
2023-02-19T06:47:37.341Z,88672.00
2023-02-19T06:48:37.356Z,88676.00
2023-02-19T06:49:37.291Z,88678.00
2023-02-19T06:50:37.246Z,88676.00
2023-02-19T06:51:37.179Z,88674.00
2023-02-19T06:52:37.149Z,88672.00
2023-02-19T06:53:37.127Z,88676.00
2023-02-19T06:54:37.084Z,88676.00
2023-02-19T06:55:37.661Z,88678.00
2023-02-19T06:56:37.030Z,88678.00
2023-02-19T06:57:36.954Z,88682.00
2023-02-19T06:58:36.926Z,88690.00
2023-02-19T06:59:36.862Z,88692.00
2023-02-19T07:00:37.303Z,88694.00
2023-02-19T07:01:36.781Z,88690.00
2023-02-19T07:02:36.754Z,88690.00
2023-02-19T07:03:36.712Z,88688.00
2023-02-19T07:04:36.684Z,88690.00
2023-02-19T07:05:36.637Z,88690.00
2023-02-19T07:06:36.594Z,88688.00
2023-02-19T07:07:36.530Z,88688.00
2023-02-19T07:08:36.557Z,88688.00
2023-02-19T07:09:36.475Z,88694.00
2023-02-19T07:10:36.456Z,88700.00
2023-02-19T07:11:36.436Z,88702.00
2023-02-19T07:12:36.366Z,88700.00
2023-02-19T07:13:36.345Z,88698.00
2023-02-19T07:14:36.280Z,88694.00
2023-02-19T07:15:36.237Z,88694.00
2023-02-19T07:16:36.255Z,88698.00
2023-02-19T07:17:36.163Z,88702.00
2023-02-19T07:18:36.139Z,88704.00
2023-02-19T07:19:36.097Z,88710.00
2023-02-19T07:20:36.088Z,88715.00
2023-02-19T07:21:36.016Z,88708.00
2023-02-19T07:22:35.991Z,88692.00
2023-02-19T07:23:35.958Z,88690.00
2023-02-19T07:24:35.975Z,88702.00
2023-02-19T07:25:35.875Z,88710.00
2023-02-19T07:26:35.894Z,88712.00
2023-02-19T07:27:35.798Z,88710.00
2023-02-19T07:28:35.804Z,88710.00
2023-02-19T07:29:35.751Z,88710.00
2023-02-19T07:30:35.780Z,88712.00
2023-02-19T07:31:35.729Z,88714.00
2023-02-19T07:32:35.638Z,88715.00
2023-02-19T07:33:35.600Z,88714.00
2023-02-19T07:34:35.574Z,88712.00
2023-02-19T07:35:35.534Z,88712.00
2023-02-19T07:36:35.513Z,88715.00
2023-02-19T07:37:35.468Z,88717.00
2023-02-19T07:38:35.429Z,88721.00
2023-02-19T07:39:35.399Z,88717.00
2023-02-19T07:40:35.379Z,88715.00
2023-02-19T07:41:35.311Z,88708.00
2023-02-19T07:42:35.285Z,88710.00
2023-02-19T07:43:35.293Z,88715.00
2023-02-19T07:44:35.250Z,88717.00
2023-02-19T07:45:35.193Z,88702.00
2023-02-19T07:46:35.173Z,88710.00
2023-02-19T07:47:35.120Z,88717.00
2023-02-19T07:48:35.070Z,88721.00
2023-02-19T07:49:35.071Z,88723.00
2023-02-19T07:50:35.017Z,88723.00
2023-02-19T07:51:34.976Z,88723.00
2023-02-19T07:52:34.947Z,88721.00
2023-02-19T07:53:34.926Z,88723.00
2023-02-19T07:54:34.890Z,88723.00
2023-02-19T07:55:34.869Z,88723.00
2023-02-19T07:56:34.802Z,88723.00
2023-02-19T07:57:34.775Z,88721.00
2023-02-19T07:58:34.748Z,88721.00
2023-02-19T07:59:34.692Z,88719.00
2023-02-19T08:00:34.696Z,88727.00
2023-02-19T08:01:34.667Z,88725.00
2023-02-19T08:02:34.593Z,88719.00
2023-02-19T08:03:34.574Z,88719.00
2023-02-19T08:04:34.509Z,88717.00
2023-02-19T08:05:34.516Z,88719.00
2023-02-19T08:06:34.474Z,88723.00
2023-02-19T08:07:34.454Z,88725.00
2023-02-19T08:08:34.372Z,88729.00
2023-02-19T08:09:34.342Z,88721.00
2023-02-19T08:10:34.336Z,88719.00
2023-02-19T08:11:34.291Z,88719.00
2023-02-19T08:12:34.252Z,88725.00
2023-02-19T08:13:34.222Z,88737.00
2023-02-19T08:14:34.205Z,88746.00
2023-02-19T08:15:34.165Z,88735.00
2023-02-19T08:16:43.050Z,88729.00
2023-02-19T08:17:35.104Z,88731.00
2023-02-19T08:18:34.070Z,88735.00
2023-02-19T08:19:34.598Z,88733.00
2023-02-19T08:20:33.993Z,88735.00
2023-02-19T08:21:34.514Z,88737.00
2023-02-19T08:22:33.908Z,88746.00
2023-02-19T08:23:33.864Z,88746.00
2023-02-19T08:24:33.852Z,88746.00
2023-02-19T08:25:33.797Z,88737.00
2023-02-19T08:26:33.762Z,88737.00
2023-02-19T08:27:33.711Z,88744.00
2023-02-19T08:28:33.703Z,88746.00
2023-02-19T08:29:33.654Z,88748.00
2023-02-19T08:30:33.757Z,88750.00
2023-02-19T08:31:33.728Z,88754.00
2023-02-19T08:32:33.558Z,88754.00
2023-02-19T08:33:33.531Z,88750.00
2023-02-19T08:34:33.512Z,88754.00
2023-02-19T08:35:33.482Z,88752.00
2023-02-19T08:36:33.435Z,88752.00
2023-02-19T08:38:33.326Z,88737.00
2023-02-19T08:39:33.293Z,88737.00
2023-02-19T08:40:33.302Z,88737.00
2023-02-19T08:41:33.201Z,88752.00
2023-02-19T08:42:33.170Z,88737.00
2023-02-19T08:43:33.124Z,88731.00
2023-02-19T08:44:33.057Z,88733.00
2023-02-19T08:45:33.027Z,88733.00
2023-02-19T08:46:34.434Z,88733.00
2023-02-19T08:47:32.891Z,88733.00
2023-02-19T08:48:32.837Z,88731.00
2023-02-19T08:49:32.801Z,88731.00
2023-02-19T08:50:32.726Z,88731.00
2023-02-19T08:51:32.661Z,88727.00
2023-02-19T08:52:32.590Z,88723.00
2023-02-19T08:53:32.566Z,88721.00
2023-02-19T08:54:32.551Z,88723.00
2023-02-19T08:55:32.417Z,88721.00
2023-02-19T08:56:32.385Z,88723.00
2023-02-19T08:57:32.298Z,88733.00
2023-02-19T08:58:32.244Z,88735.00
2023-02-19T08:59:32.162Z,88729.00
2023-02-19T09:00:32.159Z,88727.00
2023-02-19T09:01:32.109Z,88733.00
2023-02-19T09:02:31.965Z,88723.00
2023-02-19T09:03:31.928Z,88725.00
2023-02-19T09:04:31.859Z,88731.00
2023-02-19T09:05:31.762Z,88727.00
2023-02-19T09:06:31.722Z,88731.00
2023-02-19T09:07:31.637Z,88733.00
2023-02-19T09:08:31.543Z,88727.00
2023-02-19T09:09:31.493Z,88725.00
2023-02-19T09:10:31.423Z,88723.00
2023-02-19T09:11:31.349Z,88721.00
2023-02-19T09:12:31.262Z,88721.00
2023-02-19T09:14:31.123Z,88725.00
2023-02-19T09:15:31.098Z,88723.00
2023-02-19T09:16:30.977Z,88725.00
2023-02-19T09:17:30.917Z,88725.00
2023-02-19T09:18:30.833Z,88725.00
2023-02-19T09:19:30.758Z,88719.00
2023-02-19T09:20:30.688Z,88721.00
2023-02-19T09:21:30.609Z,88719.00
2023-02-19T09:22:30.518Z,88719.00
2023-02-19T09:23:30.473Z,88719.00
2023-02-19T09:24:30.374Z,88717.00
2023-02-19T09:25:30.293Z,88719.00
2023-02-19T09:26:30.256Z,88723.00
2023-02-19T09:27:30.149Z,88725.00
2023-02-19T09:28:30.073Z,88717.00
2023-02-19T09:29:30.019Z,88719.00
2023-02-19T09:30:29.962Z,88717.00
2023-02-19T09:31:29.973Z,88723.00
2023-02-19T09:32:29.793Z,88717.00
2023-02-19T09:33:29.694Z,88717.00
2023-02-19T09:34:29.606Z,88715.00
2023-02-19T09:35:29.558Z,88712.00
2023-02-19T09:36:29.461Z,88717.00
2023-02-19T09:37:29.370Z,88721.00
2023-02-19T09:38:29.276Z,88723.00
2023-02-19T09:39:29.211Z,88727.00
2023-02-19T09:40:29.125Z,88727.00
2023-02-19T09:41:29.098Z,88721.00
2023-02-19T09:42:28.990Z,88717.00
2023-02-19T09:43:28.912Z,88715.00
2023-02-19T09:44:28.810Z,88715.00
2023-02-19T09:45:28.738Z,88715.00
2023-02-19T09:46:28.771Z,88710.00
2023-02-19T09:47:28.565Z,88715.00
2023-02-19T09:48:28.517Z,88715.00
2023-02-19T09:49:28.419Z,88714.00
2023-02-19T09:50:28.325Z,88712.00
2023-02-19T09:51:28.241Z,88708.00
2023-02-19T09:52:28.182Z,88704.00
2023-02-19T09:53:28.096Z,88708.00
2023-02-19T09:54:27.995Z,88706.00
2023-02-19T09:55:27.921Z,88710.00
2023-02-19T09:56:27.848Z,88708.00
2023-02-19T09:57:27.763Z,88704.00
2023-02-19T09:58:27.675Z,88694.00
2023-02-19T09:59:27.602Z,88692.00
2023-02-19T10:00:27.529Z,88694.00
2023-02-19T10:01:29.193Z,88692.00
2023-02-19T10:02:27.391Z,88692.00
2023-02-19T10:03:27.248Z,88694.00
2023-02-19T10:04:27.186Z,88696.00
2023-02-19T10:05:27.126Z,88698.00
2023-02-19T10:06:27.005Z,88696.00
2023-02-19T10:07:26.939Z,88696.00
2023-02-19T10:08:26.837Z,88704.00
2023-02-19T10:09:26.809Z,88700.00
2023-02-19T10:10:26.650Z,88702.00
2023-02-19T10:11:26.614Z,88712.00
2023-02-19T10:12:26.520Z,88704.00
2023-02-19T10:13:26.414Z,88704.00
2023-02-19T10:14:26.303Z,88700.00
2023-02-19T10:15:26.239Z,88700.00
2023-02-19T10:16:26.134Z,88698.00
2023-02-19T10:17:26.074Z,88702.00
2023-02-19T10:18:25.997Z,88702.00
2023-02-19T10:19:25.889Z,88702.00
2023-02-19T10:20:25.812Z,88704.00
2023-02-19T10:21:25.743Z,88708.00
2023-02-19T10:22:25.655Z,88708.00
2023-02-19T10:23:25.572Z,88704.00
2023-02-19T10:24:25.437Z,88704.00
2023-02-19T10:25:25.408Z,88704.00
2023-02-19T10:26:25.280Z,88706.00
2023-02-19T10:27:25.186Z,88708.00
2023-02-19T10:28:25.094Z,88708.00
2023-02-19T10:29:25.046Z,88710.00
2023-02-19T10:30:24.964Z,88706.00
2023-02-19T10:31:24.929Z,88710.00
2023-02-19T10:32:24.771Z,88710.00
2023-02-19T10:33:24.673Z,88710.00
2023-02-19T10:34:24.573Z,88702.00
2023-02-19T10:35:24.488Z,88706.00
2023-02-19T10:36:24.417Z,88696.00
2023-02-19T10:37:24.360Z,88694.00
2023-02-19T10:38:24.203Z,88702.00
2023-02-19T10:39:24.133Z,88704.00
2023-02-19T10:40:24.040Z,88710.00
2023-02-19T10:41:23.976Z,88710.00
2023-02-19T10:42:23.859Z,88708.00
2023-02-19T10:43:23.782Z,88706.00
2023-02-19T10:44:23.668Z,88708.00
2023-02-19T10:45:23.579Z,88712.00
2023-02-19T10:46:23.540Z,88714.00
2023-02-19T10:47:23.414Z,88712.00
2023-02-19T10:48:23.308Z,88702.00
2023-02-19T10:49:23.222Z,88710.00
2023-02-19T10:50:23.106Z,88706.00
2023-02-19T10:51:23.029Z,88708.00
2023-02-19T10:52:22.923Z,88715.00
2023-02-19T10:53:22.855Z,88708.00
2023-02-19T10:54:22.728Z,88719.00
2023-02-19T10:55:22.634Z,88717.00
2023-02-19T10:56:22.535Z,88714.00
2023-02-19T10:57:22.436Z,88714.00
2023-02-19T10:58:22.356Z,88715.00
2023-02-19T10:59:22.252Z,88712.00
2023-02-19T11:00:22.168Z,88710.00
2023-02-19T11:01:22.113Z,88708.00
2023-02-19T11:02:21.969Z,88708.00
2023-02-19T11:03:21.920Z,88706.00
2023-02-19T11:04:21.826Z,88708.00
2023-02-19T11:05:21.691Z,88708.00
2023-02-19T11:06:21.590Z,88704.00
2023-02-19T11:07:21.506Z,88698.00
2023-02-19T11:08:21.396Z,88694.00
2023-02-19T11:09:21.294Z,88694.00
2023-02-19T11:10:21.208Z,88696.00
2023-02-19T11:11:21.100Z,88694.00
2023-02-19T11:12:21.009Z,88698.00
2023-02-19T11:13:20.960Z,88698.00
2023-02-19T11:14:20.814Z,88700.00
2023-02-19T11:15:20.724Z,88696.00
2023-02-19T11:16:20.653Z,88692.00
2023-02-19T11:17:20.517Z,88688.00
2023-02-19T11:18:20.437Z,88686.00
2023-02-19T11:19:20.340Z,88692.00
2023-02-19T11:20:20.239Z,88692.00
2023-02-19T11:21:20.144Z,88694.00
2023-02-19T11:22:20.044Z,88690.00
2023-02-19T11:23:19.931Z,88688.00
2023-02-19T11:24:19.890Z,88692.00
2023-02-19T11:25:19.750Z,88690.00
2023-02-19T11:26:19.639Z,88690.00
2023-02-19T11:27:19.529Z,88690.00
2023-02-19T11:28:19.439Z,88684.00
2023-02-19T11:29:19.328Z,88686.00
2023-02-19T11:30:19.298Z,88680.00
2023-02-19T11:31:19.314Z,88682.00
2023-02-19T11:32:19.124Z,88674.00
2023-02-19T11:33:18.938Z,88680.00
2023-02-19T11:34:18.845Z,88680.00
2023-02-19T11:35:18.764Z,88686.00
2023-02-19T11:36:18.665Z,88686.00
2023-02-19T11:37:18.548Z,88690.00
2023-02-19T11:38:18.437Z,88684.00
2023-02-19T11:39:18.333Z,88680.00
2023-02-19T11:40:18.238Z,88682.00
2023-02-19T11:41:18.140Z,88680.00
2023-02-19T11:42:18.033Z,88678.00
2023-02-19T11:43:17.933Z,88674.00
2023-02-19T11:44:17.887Z,88672.00
2023-02-19T11:45:17.740Z,88674.00
2023-02-19T11:46:17.761Z,88676.00
2023-02-19T11:47:17.544Z,88674.00
2023-02-19T11:48:17.451Z,88676.00
2023-02-19T11:49:17.356Z,88672.00
2023-02-19T11:50:17.249Z,88668.00
2023-02-19T11:51:17.124Z,88670.00
2023-02-19T11:52:17.020Z,88668.00
2023-02-19T11:53:16.950Z,88668.00
2023-02-19T11:54:16.804Z,88666.00
2023-02-19T11:55:16.706Z,88662.00
2023-02-19T11:56:16.589Z,88659.00
2023-02-19T11:57:16.516Z,88662.00
2023-02-19T11:58:16.389Z,88662.00
2023-02-19T11:59:16.316Z,88664.00
2023-02-19T12:00:16.237Z,88660.00
2023-02-19T12:01:16.105Z,88653.00
2023-02-19T12:02:16.025Z,88657.00
2023-02-19T12:03:15.900Z,88659.00
2023-02-19T12:04:15.814Z,88659.00
2023-02-19T12:05:15.735Z,88653.00
2023-02-19T12:06:15.600Z,88657.00
2023-02-19T12:07:16.891Z,88653.00
2023-02-19T12:08:15.382Z,88645.00
2023-02-19T12:09:15.273Z,88647.00
2023-02-19T12:10:15.224Z,88645.00
2023-02-19T12:11:15.093Z,88647.00
2023-02-19T12:12:15.742Z,88643.00
2023-02-19T12:13:14.876Z,88639.00
2023-02-19T12:14:14.765Z,88639.00
2023-02-19T12:15:14.670Z,88637.00
2023-02-19T12:16:14.601Z,88635.00
2023-02-19T12:17:14.439Z,88629.00
2023-02-19T12:18:14.363Z,88631.00
2023-02-19T12:19:14.252Z,88621.00
2023-02-19T12:20:14.178Z,88619.00
2023-02-19T12:21:14.078Z,88623.00
2023-02-19T12:22:13.976Z,88623.00
2023-02-19T12:23:13.852Z,88631.00
2023-02-19T12:24:13.748Z,88627.00
2023-02-19T12:25:13.658Z,88627.00
2023-02-19T12:26:13.617Z,88621.00
2023-02-19T12:27:13.466Z,88627.00
2023-02-19T12:28:13.320Z,88625.00
2023-02-19T12:29:13.259Z,88627.00
2023-02-19T12:30:13.263Z,88623.00
2023-02-19T12:31:13.132Z,88625.00
2023-02-19T12:32:13.028Z,88627.00
2023-02-19T12:33:12.822Z,88627.00
2023-02-19T12:34:12.740Z,88633.00
2023-02-19T12:35:12.645Z,88631.00
2023-02-19T12:36:12.960Z,88637.00
2023-02-19T12:37:12.427Z,88627.00
2023-02-19T12:38:12.341Z,88627.00
2023-02-19T12:39:12.212Z,88629.00
2023-02-19T12:40:12.141Z,88631.00
2023-02-19T12:41:12.006Z,88633.00
2023-02-19T12:42:11.907Z,88625.00
2023-02-19T12:43:11.826Z,88633.00
2023-02-19T12:44:11.744Z,88637.00
2023-02-19T12:45:11.612Z,88637.00
2023-02-19T12:46:11.856Z,88637.00
2023-02-19T12:47:11.385Z,88631.00
2023-02-19T12:48:11.288Z,88633.00
2023-02-19T12:49:11.184Z,88635.00
2023-02-19T12:50:11.157Z,88625.00
2023-02-19T12:51:10.983Z,88621.00
2023-02-19T12:52:10.858Z,88625.00
2023-02-19T12:53:10.794Z,88623.00
2023-02-19T12:54:10.696Z,88627.00
2023-02-19T12:55:10.572Z,88623.00
2023-02-19T12:56:10.655Z,88621.00
2023-02-19T12:57:10.363Z,88627.00
2023-02-19T12:58:10.382Z,88615.00
2023-02-19T12:59:10.182Z,88625.00
2023-02-19T13:00:10.046Z,88631.00
2023-02-19T13:01:09.959Z,88627.00
2023-02-19T13:02:09.850Z,88621.00
2023-02-19T13:03:09.740Z,88623.00
2023-02-19T13:04:09.623Z,88621.00
2023-02-19T13:05:09.533Z,88623.00
2023-02-19T13:06:11.392Z,88625.00
2023-02-19T13:07:09.327Z,88623.00
2023-02-19T13:08:09.204Z,88612.00
2023-02-19T13:09:09.139Z,88617.00
2023-02-19T13:10:09.012Z,88615.00
2023-02-19T13:11:09.192Z,88615.00
2023-02-19T13:12:08.774Z,88613.00
2023-02-19T13:13:08.677Z,88612.00
2023-02-19T13:14:08.565Z,88619.00
2023-02-19T13:15:08.451Z,88617.00
2023-02-19T13:16:08.393Z,88613.00
2023-02-19T13:17:08.243Z,88612.00
2023-02-19T13:18:08.164Z,88617.00
2023-02-19T13:19:08.012Z,88617.00
2023-02-19T13:20:07.946Z,88619.00
2023-02-19T13:21:07.824Z,88617.00
2023-02-19T13:22:07.703Z,88621.00
2023-02-19T13:23:07.611Z,88617.00
2023-02-19T13:24:07.469Z,88615.00
2023-02-19T13:25:07.388Z,88619.00
2023-02-19T13:26:07.251Z,88619.00
2023-02-19T13:27:07.133Z,88623.00
2023-02-19T13:28:07.034Z,88627.00
2023-02-19T13:29:06.951Z,88633.00
2023-02-19T13:30:06.848Z,88637.00
2023-02-19T13:31:06.799Z,88643.00
2023-02-19T13:32:06.672Z,88635.00
2023-02-19T13:33:06.451Z,88641.00
2023-02-19T13:34:06.344Z,88637.00
2023-02-19T13:35:06.224Z,88643.00
2023-02-19T13:36:06.177Z,88643.00
2023-02-19T13:37:05.988Z,88637.00
2023-02-19T13:39:05.816Z,88645.00
2023-02-19T13:40:05.682Z,88643.00
2023-02-19T13:41:05.603Z,88653.00